createdAt,value
2022-08-08T00:00:53.525Z,15.18
2022-08-08T00:03:00.810Z,15.17
2022-08-08T00:06:02.686Z,15.13
2022-08-08T00:08:49.931Z,15.10
2022-08-08T00:11:26.450Z,15.08
2022-08-08T00:14:57.156Z,15.06
2022-08-08T00:17:22.670Z,15.04
2022-08-08T00:19:58.486Z,15.00
2022-08-08T00:22:31.667Z,14.93
2022-08-08T00:25:04.423Z,14.67
2022-08-08T00:27:42.133Z,14.92
2022-08-08T00:30:15.533Z,14.90
2022-08-08T00:32:47.548Z,14.87
2022-08-08T00:35:37.656Z,14.79
2022-08-08T00:38:31.156Z,14.84
2022-08-08T00:42:08.364Z,14.80
2022-08-08T00:45:21.559Z,14.76
2022-08-08T00:48:35.952Z,14.70
2022-08-08T00:51:38.847Z,14.65
2022-08-08T00:54:45.949Z,14.68
2022-08-08T00:57:40.828Z,14.67
2022-08-08T01:00:13.238Z,14.65
2022-08-08T01:04:01.885Z,14.65
2022-08-08T01:06:29.055Z,14.63
2022-08-08T01:09:35.849Z,14.64
2022-08-08T01:12:46.940Z,14.60
2022-08-08T01:15:44.065Z,14.63
2022-08-08T01:19:25.345Z,14.68
2022-08-08T01:22:32.343Z,14.66
2022-08-08T01:25:43.113Z,14.59
2022-08-08T01:28:28.177Z,14.55
2022-08-08T01:32:12.739Z,14.52
2022-08-08T01:35:11.197Z,14.48
2022-08-08T01:38:15.461Z,14.46
2022-08-08T01:40:54.335Z,14.43
2022-08-08T01:43:40.937Z,14.35
2022-08-08T01:46:29.018Z,14.14
2022-08-08T01:49:10.828Z,14.31
2022-08-08T01:52:43.591Z,14.35
2022-08-08T01:56:04.567Z,14.34
2022-08-08T01:58:11.101Z,14.30
2022-08-08T02:00:49.026Z,14.30
2022-08-08T02:03:49.265Z,14.30
2022-08-08T02:06:37.030Z,14.30
2022-08-08T02:10:01.661Z,14.30
2022-08-08T02:12:19.848Z,14.30
2022-08-08T02:14:55.767Z,14.25
2022-08-08T02:17:42.350Z,14.28
2022-08-08T02:21:02.528Z,14.26
2022-08-08T02:23:20.058Z,14.22
2022-08-08T02:25:56.328Z,14.22
2022-08-08T02:28:48.607Z,14.22
2022-08-08T02:32:00.772Z,14.20
2022-08-08T02:35:13.738Z,14.18
2022-08-08T02:38:02.725Z,14.14
2022-08-08T02:40:45.334Z,14.08
2022-08-08T02:44:38.105Z,14.12
2022-08-08T02:46:58.312Z,13.59
2022-08-08T02:49:51.250Z,14.07
2022-08-08T02:53:01.125Z,14.06
2022-08-08T02:56:03.800Z,14.05
2022-08-08T02:59:36.875Z,13.98
2022-08-08T03:02:50.221Z,13.83
2022-08-08T03:05:44.949Z,13.92
2022-08-08T03:08:52.115Z,13.89
2022-08-08T03:12:36.059Z,13.88
2022-08-08T03:15:56.986Z,13.82
2022-08-08T03:18:13.614Z,13.80
2022-08-08T03:20:46.812Z,13.81
2022-08-08T03:23:19.048Z,13.77
2022-08-08T03:25:50.205Z,13.79
2022-08-08T03:28:22.765Z,13.78
2022-08-08T03:31:07.862Z,13.77
2022-08-08T03:33:55.647Z,13.76
2022-08-08T03:36:30.361Z,13.69
2022-08-08T03:39:07.915Z,13.43
2022-08-08T03:42:27.937Z,13.72
2022-08-08T03:44:35.531Z,13.74
2022-08-08T03:47:14.027Z,13.74
2022-08-08T03:49:59.805Z,13.73
2022-08-08T03:52:32.506Z,13.67
2022-08-08T03:55:19.830Z,13.71
2022-08-08T03:58:30.523Z,13.71
2022-08-08T04:01:01.652Z,13.68
2022-08-08T04:03:58.458Z,13.63
2022-08-08T04:06:24.684Z,13.66
2022-08-08T04:08:58.057Z,13.64
2022-08-08T04:11:27.623Z,13.64
2022-08-08T04:14:33.065Z,12.61
2022-08-08T04:16:49.457Z,13.54
2022-08-08T04:19:24.004Z,13.60
2022-08-08T04:21:54.210Z,13.60
2022-08-08T04:24:29.281Z,13.61
2022-08-08T04:27:00.966Z,13.62
2022-08-08T04:29:33.211Z,13.62
2022-08-08T04:32:06.678Z,13.59
2022-08-08T04:34:42.898Z,13.63
2022-08-08T04:37:26.377Z,13.55
2022-08-08T04:40:06.676Z,13.64
2022-08-08T04:42:37.542Z,13.64
2022-08-08T04:45:24.426Z,13.63
2022-08-08T04:47:53.880Z,13.66
2022-08-08T04:50:25.367Z,13.48
2022-08-08T04:53:00.710Z,13.73
2022-08-08T04:55:47.828Z,13.78
2022-08-08T04:58:22.633Z,13.84
2022-08-08T05:00:51.604Z,13.91
2022-08-08T05:04:08.190Z,13.96
2022-08-08T05:06:13.309Z,14.05
2022-08-08T05:08:51.536Z,14.11
2022-08-08T05:11:24.592Z,13.98
2022-08-08T05:14:01.079Z,14.21
2022-08-08T05:16:54.355Z,14.29
2022-08-08T05:20:10.731Z,14.36
2022-08-08T05:22:07.310Z,14.42
2022-08-08T05:24:37.427Z,14.47
2022-08-08T05:27:06.533Z,14.56
2022-08-08T05:29:36.709Z,14.55
2022-08-08T05:32:07.579Z,14.69
2022-08-08T05:34:38.501Z,14.78
2022-08-08T05:37:15.988Z,14.85
2022-08-08T05:39:51.260Z,14.91
2022-08-08T05:42:25.592Z,14.97
2022-08-08T05:45:00.616Z,14.99
2022-08-08T05:47:41.560Z,15.11
2022-08-08T05:50:19.115Z,15.17
2022-08-08T05:52:49.147Z,15.15
2022-08-08T05:55:17.050Z,15.17
2022-08-08T05:58:04.293Z,15.26
2022-08-08T06:00:36.348Z,15.31
2022-08-08T06:03:24.954Z,15.27
2022-08-08T06:05:56.719Z,15.38
2022-08-08T06:08:34.549Z,15.56
2022-08-08T06:11:04.359Z,15.68
2022-08-08T06:13:36.300Z,15.64
2022-08-08T06:16:19.221Z,15.84
2022-08-08T06:18:55.412Z,15.88
2022-08-08T06:21:32.551Z,16.03
2022-08-08T06:24:23.212Z,16.10
2022-08-08T06:27:04.802Z,16.18
2022-08-08T06:29:59.563Z,16.20
2022-08-08T06:32:30.931Z,16.41
2022-08-08T06:36:03.906Z,16.38
2022-08-08T06:37:57.965Z,16.50
2022-08-08T06:40:30.461Z,16.66
2022-08-08T06:43:05.656Z,16.70
2022-08-08T06:45:36.537Z,16.77
2022-08-08T06:48:08.634Z,16.81
2022-08-08T06:50:39.538Z,16.85
2022-08-08T06:53:14.077Z,16.94
2022-08-08T06:56:01.908Z,16.67
2022-08-08T06:58:33.766Z,17.03
2022-08-08T07:01:24.542Z,17.13
2022-08-08T07:04:37.357Z,17.25
2022-08-08T07:06:51.668Z,17.36
2022-08-08T07:09:21.881Z,17.39
2022-08-08T07:11:59.252Z,17.61
2022-08-08T07:14:34.847Z,17.81
2022-08-08T07:17:09.514Z,18.06
2022-08-08T07:19:56.004Z,18.33
2022-08-08T07:22:38.807Z,18.76
2022-08-08T07:25:11.054Z,19.34
2022-08-08T07:28:02.597Z,20.22
2022-08-08T07:30:35.585Z,20.92
2022-08-08T07:33:05.125Z,21.29
2022-08-08T07:35:35.564Z,21.79
2022-08-08T07:38:18.257Z,22.12
2022-08-08T07:43:32.347Z,23.25
2022-08-08T07:46:23.630Z,23.75
2022-08-08T07:48:52.947Z,23.98
2022-08-08T07:51:45.348Z,24.29
2022-08-08T07:54:26.464Z,24.27
2022-08-08T07:57:04.147Z,24.66
2022-08-08T07:59:48.541Z,24.82
2022-08-08T08:02:35.397Z,25.10
2022-08-08T08:05:15.384Z,24.93
2022-08-08T08:07:53.184Z,24.18
2022-08-08T08:10:30.409Z,24.07
2022-08-08T08:13:26.042Z,24.67
2022-08-08T08:16:17.156Z,25.23
2022-08-08T08:18:55.547Z,25.48
2022-08-08T08:21:44.071Z,25.42
2022-08-08T08:24:16.346Z,25.63
2022-08-08T08:26:52.925Z,25.97
2022-08-08T08:29:23.003Z,26.53
2022-08-08T08:31:53.989Z,26.49
2022-08-08T08:34:32.407Z,25.49
2022-08-08T08:37:03.351Z,24.92
2022-08-08T08:40:00.315Z,25.29
2022-08-08T08:42:35.118Z,25.78
2022-08-08T08:45:21.594Z,26.28
2022-08-08T08:47:54.226Z,26.70
2022-08-08T08:50:32.084Z,26.71
2022-08-08T08:53:54.482Z,26.84
2022-08-08T08:56:01.952Z,27.21
2022-08-08T08:58:33.249Z,27.93
2022-08-08T09:01:10.473Z,27.66
2022-08-08T09:03:47.834Z,26.65
2022-08-08T09:06:28.197Z,26.43
2022-08-08T09:09:07.499Z,26.33
2022-08-08T09:12:01.409Z,26.99
2022-08-08T09:14:34.782Z,28.00
2022-08-08T09:17:09.668Z,27.91
2022-08-08T09:22:00.131Z,27.54
2022-08-08T09:22:28.609Z,28.02
2022-08-08T09:24:59.987Z,28.81
2022-08-08T09:27:55.984Z,29.10
2022-08-08T09:30:20.208Z,28.77
2022-08-08T09:33:55.493Z,28.86
2022-08-08T09:35:49.751Z,29.11
2022-08-08T09:38:33.125Z,29.40
2022-08-08T09:41:06.743Z,29.34
2022-08-08T09:44:05.322Z,28.40
2022-08-08T09:46:45.611Z,28.94
2022-08-08T09:49:42.204Z,29.76
2022-08-08T09:52:55.557Z,29.89
2022-08-08T09:55:10.067Z,29.70
2022-08-08T09:57:55.657Z,29.97
2022-08-08T10:00:56.724Z,30.08
2022-08-08T10:03:20.027Z,29.54
2022-08-08T10:05:48.455Z,28.64
2022-08-08T10:08:19.818Z,27.80
2022-08-08T10:10:51.204Z,26.77
2022-08-08T10:13:26.046Z,26.26
2022-08-08T10:16:03.542Z,26.06
2022-08-08T10:18:34.511Z,26.57
2022-08-08T10:21:23.040Z,27.32
2022-08-08T10:23:58.885Z,27.48
2022-08-08T10:26:52.319Z,26.81
2022-08-08T10:29:56.926Z,25.88
2022-08-08T10:32:50.684Z,25.22
2022-08-08T10:36:08.801Z,24.57
2022-08-08T10:38:16.754Z,24.20
2022-08-08T10:40:46.453Z,24.26
2022-08-08T10:43:14.665Z,24.97
2022-08-08T10:45:55.745Z,25.76
2022-08-08T10:48:38.789Z,25.68
2022-08-08T10:51:24.177Z,25.40
2022-08-08T10:53:57.282Z,25.92
2022-08-08T10:56:32.276Z,26.16
2022-08-08T10:59:01.640Z,26.62
2022-08-08T11:01:33.661Z,26.66
2022-08-08T11:04:10.394Z,27.18
2022-08-08T11:06:41.935Z,27.65
2022-08-08T11:09:21.321Z,27.68
2022-08-08T11:12:05.565Z,28.02
2022-08-08T11:14:57.237Z,27.81
2022-08-08T11:18:01.380Z,28.07
2022-08-08T11:20:24.996Z,26.96
2022-08-08T11:22:57.459Z,27.20
2022-08-08T11:25:52.963Z,28.08
2022-08-08T11:28:25.554Z,28.38
2022-08-08T11:30:57.047Z,27.24
2022-08-08T11:33:35.333Z,26.35
2022-08-08T11:36:20.328Z,27.00
2022-08-08T11:38:55.226Z,27.84
2022-08-08T11:41:24.940Z,28.18
2022-08-08T11:43:57.883Z,28.53
2022-08-08T11:46:30.571Z,28.85
2022-08-08T11:49:01.505Z,29.27
2022-08-08T11:51:39.879Z,29.21
2022-08-08T11:54:27.395Z,28.23
2022-08-08T11:57:13.978Z,27.95
2022-08-08T12:00:00.933Z,28.87
2022-08-08T12:02:34.244Z,29.87
2022-08-08T12:05:05.217Z,30.55
2022-08-08T12:07:49.544Z,30.81
2022-08-08T12:10:21.909Z,31.03
2022-08-08T12:12:51.878Z,30.25
2022-08-08T12:15:42.498Z,29.09
2022-08-08T12:18:21.412Z,29.83
2022-08-08T12:20:53.091Z,29.85
2022-08-08T12:23:42.657Z,29.52
2022-08-08T12:26:17.162Z,29.57
2022-08-08T12:28:57.146Z,29.91
2022-08-08T12:31:39.427Z,30.30
2022-08-08T12:34:37.578Z,30.99
2022-08-08T12:37:08.664Z,31.15
2022-08-08T12:39:59.944Z,31.17
2022-08-08T12:42:33.873Z,30.71
2022-08-08T12:45:54.930Z,31.50
2022-08-08T12:48:09.651Z,32.00
2022-08-08T12:50:46.824Z,32.60
2022-08-08T12:53:30.155Z,33.21
2022-08-08T12:56:18.997Z,33.36
2022-08-08T12:58:55.242Z,32.62
2022-08-08T13:01:36.840Z,33.02
2022-08-08T13:04:18.983Z,33.70
2022-08-08T13:07:02.825Z,34.31
2022-08-08T13:09:33.929Z,34.83
2022-08-08T13:12:29.604Z,35.40
2022-08-08T13:14:59.369Z,35.03
2022-08-08T13:18:09.717Z,34.53
2022-08-08T13:20:18.548Z,33.86
2022-08-08T13:22:47.579Z,33.11
2022-08-08T13:25:16.703Z,32.84
2022-08-08T13:27:53.031Z,31.93
2022-08-08T13:30:26.409Z,31.47
2022-08-08T13:32:57.559Z,30.51
2022-08-08T13:35:38.295Z,30.11
2022-08-08T13:38:08.467Z,30.28
2022-08-08T13:40:41.436Z,30.87
2022-08-08T13:43:16.140Z,31.34
2022-08-08T13:45:47.622Z,32.08
2022-08-08T13:48:25.111Z,31.71
2022-08-08T13:50:57.942Z,31.06
2022-08-08T13:53:53.243Z,31.10
2022-08-08T13:56:32.318Z,29.20
2022-08-08T13:59:01.774Z,28.09
2022-08-08T14:01:32.664Z,27.32
2022-08-08T14:04:23.086Z,26.72
2022-08-08T14:06:59.352Z,26.56
2022-08-08T14:10:05.882Z,26.28
2022-08-08T14:12:28.206Z,26.05
2022-08-08T14:14:58.859Z,26.39
2022-08-08T14:17:58.105Z,26.91
2022-08-08T14:20:57.910Z,27.93
2022-08-08T14:23:10.068Z,28.22
2022-08-08T14:25:46.610Z,28.92
2022-08-08T14:28:23.623Z,30.06
2022-08-08T14:31:09.593Z,31.33
2022-08-08T14:33:39.274Z,31.54
2022-08-08T14:36:11.460Z,31.71
2022-08-08T14:38:52.699Z,32.44
2022-08-08T14:41:53.140Z,33.51
2022-08-08T14:44:21.009Z,34.41
2022-08-08T14:47:01.276Z,34.76
2022-08-08T14:49:37.842Z,33.94
2022-08-08T14:52:21.292Z,32.58
2022-08-08T14:54:51.002Z,32.98
2022-08-08T14:57:20.490Z,33.83
2022-08-08T14:59:56.273Z,32.97
2022-08-08T15:02:31.255Z,32.81
2022-08-08T15:05:08.116Z,31.77
2022-08-08T15:07:40.200Z,31.39
2022-08-08T15:10:12.545Z,32.05
2022-08-08T15:12:41.906Z,33.02
2022-08-08T15:15:18.722Z,33.96
2022-08-08T15:18:03.877Z,34.92
2022-08-08T15:20:32.180Z,35.15
2022-08-08T15:23:01.648Z,35.25
2022-08-08T15:25:33.190Z,34.61
2022-08-08T15:28:32.773Z,34.64
2022-08-08T15:30:50.765Z,35.41
2022-08-08T15:33:21.095Z,35.26
2022-08-08T15:36:03.731Z,34.05
2022-08-08T15:38:31.794Z,32.94
2022-08-08T15:41:00.661Z,32.21
2022-08-08T15:43:35.604Z,31.24
2022-08-08T15:46:04.977Z,30.97
2022-08-08T15:48:34.468Z,31.70
2022-08-08T15:51:06.231Z,31.52
2022-08-08T15:53:48.968Z,32.19
2022-08-08T15:56:20.068Z,32.93
2022-08-08T15:58:50.224Z,32.72
2022-08-08T16:01:18.516Z,32.33
2022-08-08T16:03:51.467Z,32.43
2022-08-08T16:06:28.808Z,32.76
2022-08-08T16:13:01.954Z,31.86
2022-08-08T16:13:20.913Z,32.40
2022-08-08T16:14:39.061Z,33.32
2022-08-08T16:17:57.682Z,33.94
2022-08-08T16:20:13.479Z,33.74
2022-08-08T16:22:42.494Z,34.12
2022-08-08T16:25:17.512Z,34.46
2022-08-08T16:27:56.988Z,33.92
2022-08-08T16:30:32.432Z,33.16
2022-08-08T16:33:04.697Z,32.20
2022-08-08T16:35:36.512Z,32.47
2022-08-08T16:38:04.519Z,33.08
2022-08-08T16:40:36.629Z,32.67
2022-08-08T16:43:05.942Z,32.04
2022-08-08T16:46:39.279Z,32.00
2022-08-08T16:48:24.574Z,32.36
2022-08-08T16:51:01.894Z,32.86
2022-08-08T16:55:06.465Z,32.63
2022-08-08T16:56:18.230Z,30.40
2022-08-08T16:58:47.313Z,31.52
2022-08-08T17:01:17.798Z,30.98
2022-08-08T17:04:01.464Z,30.49
2022-08-08T17:06:43.251Z,30.10
2022-08-08T17:09:14.987Z,29.60
2022-08-08T17:11:49.034Z,29.60
2022-08-08T17:14:27.004Z,29.82
2022-08-08T17:17:02.485Z,29.81
2022-08-08T17:19:41.005Z,29.76
2022-08-08T17:22:12.436Z,29.57
2022-08-08T17:24:40.932Z,29.06
2022-08-08T17:27:08.963Z,28.62
2022-08-08T17:29:43.377Z,28.07
2022-08-08T17:32:12.208Z,27.56
2022-08-08T17:35:52.958Z,27.11
2022-08-08T17:37:32.580Z,26.68
2022-08-08T17:40:10.496Z,26.31
2022-08-08T17:42:41.204Z,25.98
2022-08-08T17:45:23.660Z,25.65
2022-08-08T17:47:54.088Z,25.33
2022-08-08T17:50:24.094Z,24.71
2022-08-08T17:52:53.961Z,24.88
2022-08-08T17:56:06.837Z,23.86
2022-08-08T17:58:13.782Z,24.48
2022-08-08T18:00:41.894Z,24.32
2022-08-08T18:03:15.849Z,24.19
2022-08-08T18:05:49.210Z,24.07
2022-08-08T18:08:40.870Z,23.80
2022-08-08T18:11:11.689Z,23.68
2022-08-08T18:13:42.053Z,23.55
2022-08-08T18:16:11.556Z,23.46
2022-08-08T18:18:42.675Z,23.35
2022-08-08T18:21:24.902Z,23.25
2022-08-08T18:24:01.001Z,22.83
2022-08-08T18:26:30.431Z,22.85
2022-08-08T18:28:58.474Z,22.58
2022-08-08T18:31:28.727Z,22.62
2022-08-08T18:34:12.247Z,22.57
2022-08-08T18:36:45.161Z,22.45
2022-08-08T18:39:16.457Z,22.40
2022-08-08T18:42:01.098Z,22.19
2022-08-08T18:44:35.864Z,22.09
2022-08-08T18:47:04.806Z,22.14
2022-08-08T18:49:57.389Z,22.12
2022-08-08T18:52:23.343Z,22.20
2022-08-08T18:54:59.273Z,22.09
2022-08-08T18:57:40.961Z,21.81
2022-08-08T19:00:16.507Z,21.80
2022-08-08T19:02:56.566Z,21.79
2022-08-08T19:05:30.468Z,21.71
2022-08-08T19:08:04.171Z,21.70
2022-08-08T19:10:33.560Z,21.67
2022-08-08T19:13:03.237Z,21.58
2022-08-08T19:15:33.871Z,21.23
2022-08-08T19:18:33.446Z,21.07
2022-08-08T19:20:54.499Z,20.88
2022-08-08T19:23:22.879Z,20.83
2022-08-08T19:26:01.515Z,20.79
2022-08-08T19:28:36.609Z,20.71
2022-08-08T19:31:08.933Z,20.73
2022-08-08T19:33:51.997Z,20.37
2022-08-08T19:36:28.289Z,20.51
2022-08-08T19:38:56.966Z,20.37
2022-08-08T19:41:30.537Z,20.30
2022-08-08T19:44:04.140Z,20.15
2022-08-08T19:46:40.659Z,20.21
2022-08-08T19:49:09.606Z,20.06
2022-08-08T19:51:41.549Z,19.93
2022-08-08T19:54:12.788Z,19.91
2022-08-08T19:56:48.908Z,19.89
2022-08-08T19:59:18.879Z,19.80
2022-08-08T20:02:03.527Z,19.75
2022-08-08T20:04:33.025Z,19.68
2022-08-08T20:07:05.069Z,19.32
2022-08-08T20:09:56.293Z,19.56
2022-08-08T20:12:32.731Z,19.49
2022-08-08T20:15:14.145Z,19.42
2022-08-08T20:17:45.343Z,19.39
2022-08-08T20:20:19.183Z,19.13
2022-08-08T20:22:53.732Z,19.25
2022-08-08T20:25:29.605Z,19.10
2022-08-08T20:28:07.000Z,19.00
2022-08-08T20:30:55.651Z,18.91
2022-08-08T20:35:57.016Z,18.64
2022-08-08T20:38:32.731Z,18.77
2022-08-08T20:41:05.432Z,18.67
2022-08-08T20:43:43.672Z,18.60
2022-08-08T20:46:16.196Z,18.60
2022-08-08T20:48:47.861Z,18.60
2022-08-08T20:51:16.058Z,18.64
2022-08-08T20:54:00.176Z,18.67
2022-08-08T20:56:35.290Z,18.59
2022-08-08T20:59:09.214Z,18.48
2022-08-08T21:02:06.628Z,18.38
2022-08-08T21:04:27.322Z,18.31
2022-08-08T21:06:56.263Z,18.14
2022-08-08T21:09:31.433Z,18.12
2022-08-08T21:12:03.053Z,18.16
2022-08-08T21:14:34.424Z,18.12
2022-08-08T21:17:06.426Z,18.07
2022-08-08T21:19:45.217Z,17.92
2022-08-08T21:22:15.714Z,17.98
2022-08-08T21:24:52.682Z,17.92
2022-08-08T21:28:06.398Z,17.83
2022-08-08T21:30:18.545Z,17.78
2022-08-08T21:32:52.242Z,17.50
2022-08-08T21:36:14.784Z,17.73
2022-08-08T21:38:16.794Z,17.64
2022-08-08T21:40:55.964Z,17.68
2022-08-08T21:43:33.243Z,17.40
2022-08-08T21:48:05.839Z,17.61
2022-08-08T21:48:54.003Z,17.56
2022-08-08T21:54:18.739Z,17.48
2022-08-08T21:54:32.948Z,17.36
2022-08-08T21:57:01.005Z,17.36
2022-08-08T21:59:44.105Z,17.33
2022-08-08T22:02:19.646Z,17.28
2022-08-08T22:04:51.481Z,17.25
2022-08-08T22:07:19.658Z,17.11
2022-08-08T22:09:47.618Z,16.91
2022-08-08T22:12:16.869Z,17.14
2022-08-08T22:14:50.074Z,17.10
2022-08-08T22:17:21.957Z,17.07
2022-08-08T22:20:12.215Z,17.06
2022-08-08T22:22:39.220Z,17.02
2022-08-08T22:25:12.325Z,16.99
2022-08-08T22:28:03.986Z,16.96
2022-08-08T22:30:40.443Z,16.94
2022-08-08T22:34:11.033Z,16.90
2022-08-08T22:36:05.663Z,16.84
2022-08-08T22:38:48.500Z,16.76
2022-08-08T22:41:21.458Z,16.75
2022-08-08T22:44:02.102Z,16.75
2022-08-08T22:46:33.094Z,16.72
2022-08-08T22:49:03.513Z,16.70
2022-08-08T22:51:34.980Z,16.64
2022-08-08T22:54:31.844Z,16.68
2022-08-08T22:56:59.387Z,16.65
2022-08-08T22:59:36.070Z,16.63
2022-08-08T23:02:19.752Z,16.54
2022-08-08T23:04:57.932Z,16.52
2022-08-08T23:07:51.982Z,16.54
2022-08-08T23:10:21.314Z,16.45
2022-08-08T23:12:51.587Z,16.47
2022-08-08T23:16:37.967Z,16.36
2022-08-08T23:18:11.869Z,16.32
2022-08-08T23:20:43.762Z,16.38
2022-08-08T23:23:12.709Z,16.36
2022-08-08T23:25:47.793Z,16.33
2022-08-08T23:28:17.755Z,16.30
2022-08-08T23:30:46.102Z,16.22
2022-08-08T23:33:19.464Z,16.23
2022-08-08T23:36:07.827Z,16.21
2022-08-08T23:38:41.895Z,15.93
2022-08-08T23:41:23.189Z,16.18
2022-08-08T23:43:54.221Z,16.16
2022-08-08T23:49:08.139Z,16.15
2022-08-08T23:49:15.573Z,16.12
2022-08-08T23:52:07.154Z,16.11
2022-08-08T23:54:41.978Z,16.09
2022-08-08T23:57:26.480Z,16.09
